Time;durP1;ratioP1;P1;durP2;ratioP2;P2;SDS_P1;SDS_P2;PMS_P1;PMS_P2;Temp;Humidity;BMP_temperature;BMP_pressure;BME280_temperature;BME280_humidity;BME280_pressure;Samples;Min_cycle;Max_cycle;Signal;HPM_P1;HPM_P2
2021/12/12 00:02:11;;;;;;;74.43;30.77;;;3.10;99.90;;;;;;5065802;28;20763;-63
2021/12/12 00:04:44;;;;;;;73.17;29.63;;;3.10;99.90;;;;;;5064768;28;20880;-63
2021/12/12 00:07:15;;;;;;;82.80;33.77;;;3.20;99.90;;;;;;5077129;28;20845;-63
2021/12/12 00:09:46;;;;;;;86.53;33.23;;;3.10;99.90;;;;;;5062564;28;21034;-63
2021/12/12 00:12:19;;;;;;;89.20;32.90;;;3.10;99.90;;;;;;5073884;28;20499;-63
2021/12/12 00:14:48;;;;;;;82.20;31.97;;;3.20;99.90;;;;;;5077684;28;20508;-63
2021/12/12 00:17:17;;;;;;;85.30;33.23;;;3.10;99.90;;;;;;5072021;28;20833;-63
2021/12/12 00:19:46;;;;;;;78.87;29.73;;;3.10;99.90;;;;;;5065191;28;20473;-63
2021/12/12 00:22:18;;;;;;;86.90;34.23;;;3.10;99.90;;;;;;5074513;28;20475;-63
2021/12/12 00:24:46;;;;;;;75.67;30.70;;;3.20;99.90;;;;;;5069639;28;20574;-62
2021/12/12 00:27:15;;;;;;;77.80;31.90;;;3.10;99.90;;;;;;5069302;28;20552;-63
2021/12/12 00:29:44;;;;;;;76.63;31.70;;;3.10;99.90;;;;;;5054292;28;20559;-62
2021/12/12 00:32:15;;;;;;;79.83;30.50;;;3.10;99.90;;;;;;5073958;28;20623;-63
2021/12/12 00:34:48;;;;;;;72.30;29.30;;;3.10;99.90;;;;;;5065256;28;20486;-62
2021/12/12 00:37:18;;;;;;;74.87;30.90;;;3.10;99.90;;;;;;5074417;28;20562;-62
2021/12/12 00:39:52;;;;;;;68.27;29.13;;;3.10;99.90;;;;;;5070617;28;20546;-63
2021/12/12 00:42:22;;;;;;;78.53;30.13;;;3.00;99.90;;;;;;5058961;28;20553;-63
2021/12/12 00:44:55;;;;;;;71.87;31.23;;;3.20;99.90;;;;;;5069196;28;21157;-63
2021/12/12 00:47:23;;;;;;;75.97;31.10;;;3.10;99.90;;;;;;5072355;28;20503;-63
2021/12/12 00:50:12;;;;;;;77.13;31.13;;;3.10;99.90;;;;;;5072464;28;20582;-63
2021/12/12 00:52:42;;;;;;;71.53;29.77;;;3.10;99.90;;;;;;5070815;28;20489;-63
2021/12/12 00:55:11;;;;;;;74.50;30.67;;;3.10;99.90;;;;;;5067223;28;20556;-63
2021/12/12 00:57:39;;;;;;;81.60;32.17;;;3.10;99.90;;;;;;5083025;28;20904;-62
2021/12/12 01:00:12;;;;;;;72.47;29.73;;;3.10;99.90;;;;;;5075374;28;20471;-62
2021/12/12 01:02:40;;;;;;;76.93;31.57;;;3.20;99.90;;;;;;5062034;28;20556;-63
2021/12/12 01:05:11;;;;;;;80.37;30.87;;;3.20;99.90;;;;;;5077535;28;20481;-62
2021/12/12 01:07:43;;;;;;;80.70;30.27;;;3.10;99.90;;;;;;5060238;28;20909;-63
2021/12/12 01:10:17;;;;;;;76.10;30.23;;;3.20;99.90;;;;;;5075095;28;20474;-62
2021/12/12 01:12:45;;;;;;;77.70;29.87;;;3.10;99.90;;;;;;5065659;28;20560;-63
2021/12/12 01:15:21;;;;;;;80.27;31.17;;;3.10;99.90;;;;;;5076155;28;20682;-63
2021/12/12 01:17:52;;;;;;;72.43;30.77;;;3.10;99.90;;;;;;5070764;28;20480;-62
2021/12/12 01:20:29;;;;;;;85.93;32.73;;;3.20;99.90;;;;;;5074632;28;20896;-62
2021/12/12 01:23:02;;;;;;;76.53;31.70;;;3.20;99.90;;;;;;5072754;28;20899;-61
2021/12/12 01:25:35;;;;;;;77.47;32.47;;;3.20;99.90;;;;;;5070429;28;21058;-62
2021/12/12 01:28:04;;;;;;;74.20;31.10;;;3.20;99.90;;;;;;5074948;28;20553;-63
2021/12/12 01:30:32;;;;;;;81.03;30.73;;;3.20;99.90;;;;;;5061310;28;20851;-62
2021/12/12 01:33:01;;;;;;;82.17;31.93;;;3.10;99.90;;;;;;5062972;28;21037;-63
2021/12/12 01:35:32;;;;;;;74.77;30.93;;;3.10;99.90;;;;;;5068204;28;20474;-62
2021/12/12 01:40:53;;;;;;;81.83;31.07;;;3.20;99.90;;;;;;5062667;28;20489;-62
2021/12/12 01:43:26;;;;;;;75.73;32.27;;;3.10;99.90;;;;;;5073349;28;20554;-63
2021/12/12 01:46:01;;;;;;;81.33;31.23;;;3.10;99.90;;;;;;5064184;28;20547;-62
2021/12/12 01:48:35;;;;;;;75.00;31.67;;;3.10;99.90;;;;;;5064811;28;20591;-62
2021/12/12 01:51:09;;;;;;;72.87;29.60;;;3.20;99.90;;;;;;5070806;28;20544;-62
2021/12/12 01:53:41;;;;;;;71.13;26.87;;;3.20;99.90;;;;;;5067612;28;20786;-62
2021/12/12 01:56:13;;;;;;;82.00;31.33;;;3.30;99.90;;;;;;5072861;28;20484;-62
2021/12/12 01:58:43;;;;;;;78.80;31.20;;;3.30;99.90;;;;;;5069840;28;20537;-63
2021/12/12 02:01:15;;;;;;;78.77;31.57;;;3.30;99.90;;;;;;5070360;28;20565;-63
2021/12/12 02:03:48;;;;;;;83.70;29.97;;;3.40;99.90;;;;;;5073626;28;20998;-63
2021/12/12 02:06:20;;;;;;;82.37;32.20;;;3.30;99.90;;;;;;5071607;28;20553;-63
2021/12/12 02:08:51;;;;;;;80.00;30.40;;;3.30;99.90;;;;;;5070550;28;20544;-62
2021/12/12 02:11:23;;;;;;;77.83;30.60;;;3.30;99.90;;;;;;5075432;28;20553;-63
2021/12/12 02:13:54;;;;;;;78.30;30.97;;;3.40;99.90;;;;;;5074383;28;20553;-61
2021/12/12 02:16:26;;;;;;;82.37;31.77;;;3.30;99.90;;;;;;5073429;28;20484;-62
2021/12/12 02:18:58;;;;;;;78.20;31.83;;;3.40;99.90;;;;;;5047936;28;20535;-62
2021/12/12 02:21:36;;;;;;;77.17;31.17;;;3.40;99.90;;;;;;5067438;28;20548;-63
2021/12/12 02:35:36;;;;;;;81.17;33.13;;;3.40;99.90;;;;;;5070576;28;20890;-63
2021/12/12 02:38:06;;;;;;;79.83;33.43;;;3.40;99.90;;;;;;5071799;28;20512;-62
2021/12/12 02:40:39;;;;;;;76.00;33.07;;;3.40;99.90;;;;;;5072472;28;20469;-63
2021/12/12 02:43:08;;;;;;;73.50;32.90;;;3.40;99.90;;;;;;5066466;28;21349;-63
2021/12/12 02:45:36;;;;;;;72.93;31.60;;;3.40;99.90;;;;;;5070052;28;20497;-63
2021/12/12 02:48:08;;;;;;;77.43;33.30;;;3.40;99.90;;;;;;5071880;28;20484;-63
2021/12/12 02:50:41;;;;;;;78.33;32.73;;;3.40;99.90;;;;;;5074032;28;20552;-63
2021/12/12 02:53:12;;;;;;;72.17;32.00;;;3.40;99.90;;;;;;5078339;28;20555;-62
2021/12/12 02:55:46;;;;;;;72.23;32.40;;;3.40;99.90;;;;;;5060079;28;20542;-63
2021/12/12 02:58:17;;;;;;;70.87;32.90;;;3.40;99.90;;;;;;5069165;28;20500;-62
2021/12/12 03:00:49;;;;;;;74.30;32.67;;;3.40;99.90;;;;;;5072070;28;20485;-63
2021/12/12 03:03:17;;;;;;;78.13;33.47;;;3.40;99.90;;;;;;5066171;28;20473;-62
2021/12/12 03:05:48;;;;;;;75.83;33.83;;;3.50;99.90;;;;;;5066634;28;20934;-63
2021/12/12 03:08:17;;;;;;;76.20;34.53;;;3.40;99.90;;;;;;5067853;28;21041;-61
2021/12/12 03:10:51;;;;;;;74.37;33.60;;;3.40;99.90;;;;;;5074123;28;20478;-63
2021/12/12 03:13:20;;;;;;;80.00;34.67;;;3.40;99.90;;;;;;5064651;28;20822;-61
2021/12/12 03:15:49;;;;;;;70.67;32.20;;;3.50;99.90;;;;;;5067310;28;20480;-62
2021/12/12 03:18:20;;;;;;;70.40;33.03;;;3.50;99.90;;;;;;5072904;28;20914;-62
2021/12/12 03:20:55;;;;;;;71.43;32.57;;;3.50;99.90;;;;;;5073430;28;20478;-63
2021/12/12 03:23:26;;;;;;;82.03;34.40;;;3.60;99.90;;;;;;5066195;28;20574;-62
2021/12/12 03:25:59;;;;;;;79.67;34.27;;;3.60;99.90;;;;;;5066386;28;20508;-63
2021/12/12 03:28:29;;;;;;;73.53;34.37;;;3.70;99.90;;;;;;5059726;28;20486;-62
2021/12/12 03:31:01;;;;;;;77.90;35.13;;;3.60;99.90;;;;;;5063643;28;20574;-62
2021/12/12 03:33:31;;;;;;;75.93;35.43;;;3.60;99.90;;;;;;5073380;28;20477;-63
2021/12/12 03:36:01;;;;;;;82.97;35.57;;;3.60;99.90;;;;;;5075975;28;20481;-63
2021/12/12 03:38:31;;;;;;;76.70;34.70;;;3.60;99.90;;;;;;5072057;28;20556;-63
2021/12/12 03:41:05;;;;;;;84.53;35.80;;;3.70;99.90;;;;;;5078346;28;21032;-63
2021/12/12 03:43:34;;;;;;;77.20;33.97;;;3.70;99.90;;;;;;5076037;28;21072;-63
2021/12/12 03:46:10;;;;;;;87.57;36.90;;;3.80;99.90;;;;;;5071918;28;20503;-62
2021/12/12 03:48:41;;;;;;;82.33;36.03;;;3.80;99.90;;;;;;5074850;28;20852;-63
2021/12/12 03:51:12;;;;;;;84.63;36.90;;;3.70;99.90;;;;;;5081370;28;20474;-63
2021/12/12 03:53:41;;;;;;;82.60;36.53;;;3.80;99.90;;;;;;5069874;28;20880;-62
2021/12/12 03:56:12;;;;;;;88.10;35.13;;;3.70;99.90;;;;;;5077514;28;20453;-63
2021/12/12 03:58:41;;;;;;;87.23;35.37;;;3.80;99.90;;;;;;5074000;28;20496;-62
2021/12/12 04:01:12;;;;;;;77.00;35.97;;;3.70;99.90;;;;;;5077345;28;20970;-63
2021/12/12 04:03:42;;;;;;;84.33;37.47;;;3.70;99.90;;;;;;5074262;28;20498;-62
2021/12/12 04:06:14;;;;;;;92.60;36.67;;;3.70;99.90;;;;;;5073283;28;20461;-63
2021/12/12 04:08:47;;;;;;;86.13;36.53;;;3.80;99.90;;;;;;5066640;28;20462;-63
2021/12/12 04:11:20;;;;;;;86.37;37.73;;;3.80;99.90;;;;;;5076148;28;20971;-63
2021/12/12 04:13:51;;;;;;;82.73;38.30;;;3.90;99.90;;;;;;5076181;28;20542;-63
2021/12/12 04:16:21;;;;;;;100.00;40.03;;;3.90;99.90;;;;;;5067694;28;20892;-62
2021/12/12 04:18:49;;;;;;;85.60;39.23;;;3.80;99.90;;;;;;5072095;28;20551;-62
2021/12/12 04:21:21;;;;;;;102.23;39.77;;;3.80;99.90;;;;;;5074304;28;20475;-63
2021/12/12 04:23:49;;;;;;;89.60;37.43;;;3.80;99.90;;;;;;5075018;28;20549;-63
2021/12/12 04:26:22;;;;;;;96.70;39.67;;;3.80;99.90;;;;;;5073809;28;20483;-62
2021/12/12 04:29:01;;;;;;;97.53;39.50;;;3.80;99.90;;;;;;5062912;28;21046;-63
2021/12/12 04:31:30;;;;;;;95.10;39.00;;;3.90;99.90;;;;;;5073688;28;20474;-63
2021/12/12 04:34:00;;;;;;;104.60;41.00;;;3.90;99.90;;;;;;5072611;28;20497;-63
2021/12/12 04:36:30;;;;;;;97.37;39.10;;;3.90;99.90;;;;;;5071062;28;20476;-63
2021/12/12 04:39:00;;;;;;;104.17;41.37;;;3.90;99.90;;;;;;5076169;28;20479;-63
2021/12/12 04:41:30;;;;;;;90.40;38.70;;;3.90;99.90;;;;;;5066283;28;20500;-62
2021/12/12 04:43:58;;;;;;;95.87;39.87;;;3.90;99.90;;;;;;5076542;28;21024;-63
2021/12/12 04:46:38;;;;;;;98.47;39.30;;;4.00;99.90;;;;;;5078593;28;20479;-63
2021/12/12 04:51:59;;;;;;;100.07;39.93;;;4.00;99.90;;;;;;5073680;28;20552;-62
2021/12/12 04:54:33;;;;;;;103.80;41.43;;;4.00;99.90;;;;;;5076483;28;20491;-62
2021/12/12 04:57:07;;;;;;;100.53;41.03;;;4.00;99.90;;;;;;5070575;28;20492;-63
2021/12/12 04:59:42;;;;;;;97.13;41.07;;;4.00;99.90;;;;;;5070285;28;20529;-62
2021/12/12 05:02:18;;;;;;;96.17;41.27;;;4.00;99.90;;;;;;5075641;28;20975;-62
2021/12/12 05:04:53;;;;;;;99.03;39.13;;;4.00;99.90;;;;;;5075480;28;20857;-62
2021/12/12 05:07:26;;;;;;;100.30;40.70;;;4.00;99.90;;;;;;5072246;28;20543;-62
2021/12/12 05:09:59;;;;;;;99.73;39.57;;;4.00;99.90;;;;;;5069015;28;20470;-62
2021/12/12 05:12:32;;;;;;;94.83;40.93;;;4.00;99.90;;;;;;5071983;28;20479;-62
2021/12/12 05:15:04;;;;;;;91.90;40.10;;;4.00;99.90;;;;;;5056336;28;20487;-62
2021/12/12 05:17:38;;;;;;;89.60;41.13;;;4.00;99.90;;;;;;5058277;28;20493;-62
2021/12/12 05:20:11;;;;;;;91.47;40.77;;;4.10;99.90;;;;;;5058641;28;20562;-63
2021/12/12 05:22:44;;;;;;;89.07;40.93;;;4.10;99.90;;;;;;5060045;28;20475;-63
2021/12/12 05:25:17;;;;;;;89.23;40.00;;;4.00;99.90;;;;;;5063947;28;20488;-62
2021/12/12 05:27:50;;;;;;;89.50;40.40;;;4.10;99.90;;;;;;5065742;28;20599;-62
2021/12/12 05:30:21;;;;;;;91.30;39.47;;;4.00;99.90;;;;;;5064379;28;20479;-62
2021/12/12 05:32:51;;;;;;;95.43;41.67;;;4.00;99.90;;;;;;5067106;28;20465;-62
2021/12/12 05:35:23;;;;;;;82.30;38.47;;;4.00;99.90;;;;;;5068001;28;20473;-62
2021/12/12 05:37:54;;;;;;;84.73;39.83;;;4.10;99.90;;;;;;5067978;28;20506;-62
2021/12/12 05:40:25;;;;;;;89.63;39.80;;;4.10;99.90;;;;;;5068924;28;20866;-62
2021/12/12 05:42:59;;;;;;;87.67;39.40;;;4.10;99.90;;;;;;5066306;28;20505;-63
2021/12/12 05:45:28;;;;;;;86.27;39.03;;;4.10;99.90;;;;;;5066470;28;20503;-61
2021/12/12 05:47:57;;;;;;;80.27;35.80;;;4.10;99.90;;;;;;5066383;28;20818;-63
2021/12/12 05:50:27;;;;;;;96.13;41.77;;;4.20;99.90;;;;;;5066770;28;20823;-62
2021/12/12 05:52:56;;;;;;;96.23;40.60;;;4.10;99.90;;;;;;5076446;28;20813;-62
2021/12/12 05:55:26;;;;;;;94.23;40.10;;;4.10;99.90;;;;;;5075996;28;20507;-62
2021/12/12 05:57:57;;;;;;;79.73;37.73;;;4.10;99.90;;;;;;5065560;28;21091;-62
2021/12/12 06:00:31;;;;;;;75.47;38.33;;;4.10;99.90;;;;;;5073423;28;20471;-62
2021/12/12 06:03:00;;;;;;;82.03;40.37;;;4.10;99.90;;;;;;5078552;28;20483;-62
2021/12/12 06:05:32;;;;;;;87.00;38.47;;;4.10;99.90;;;;;;5068226;28;21033;-62
2021/12/12 06:08:00;;;;;;;77.93;36.83;;;4.10;99.90;;;;;;5067307;28;20567;-63
2021/12/12 06:10:29;;;;;;;77.53;36.57;;;4.10;99.90;;;;;;5067921;28;20477;-63
2021/12/12 06:13:00;;;;;;;74.70;36.00;;;4.10;99.90;;;;;;5076226;28;20584;-62
2021/12/12 06:15:30;;;;;;;80.70;36.27;;;4.10;99.90;;;;;;5073068;28;20497;-62
2021/12/12 06:18:00;;;;;;;69.17;34.10;;;4.10;99.90;;;;;;5070554;28;20473;-62
2021/12/12 06:20:30;;;;;;;67.53;34.40;;;4.10;99.90;;;;;;5078614;28;21027;-63
2021/12/12 06:22:58;;;;;;;69.37;34.63;;;4.10;99.90;;;;;;5061586;28;20475;-63
2021/12/12 06:25:27;;;;;;;65.87;33.23;;;4.10;99.90;;;;;;5074723;28;21189;-62
2021/12/12 06:27:55;;;;;;;67.43;32.20;;;4.10;99.90;;;;;;5071841;28;20469;-62
2021/12/12 06:30:25;;;;;;;71.67;32.07;;;4.10;99.90;;;;;;5074689;28;20880;-62
2021/12/12 06:32:54;;;;;;;71.17;34.00;;;4.10;99.90;;;;;;5064320;28;20488;-62
2021/12/12 06:35:23;;;;;;;61.17;31.43;;;4.10;99.90;;;;;;5066227;28;20541;-62
2021/12/12 06:37:51;;;;;;;60.67;32.20;;;4.10;99.90;;;;;;5071622;28;20793;-61
2021/12/12 06:40:22;;;;;;;66.80;30.77;;;4.10;99.90;;;;;;5070185;28;20483;-62
2021/12/12 06:42:51;;;;;;;59.77;29.97;;;4.10;99.90;;;;;;5068303;28;20492;-63
2021/12/12 06:45:20;;;;;;;58.03;27.50;;;4.20;99.90;;;;;;5064859;28;21088;-63
2021/12/12 06:47:50;;;;;;;55.50;26.97;;;4.20;99.90;;;;;;5069258;28;20566;-62
2021/12/12 06:50:19;;;;;;;53.20;28.40;;;4.20;99.90;;;;;;5063545;28;20474;-62
2021/12/12 06:52:48;;;;;;;47.50;26.03;;;4.20;99.90;;;;;;5066555;28;20480;-62
2021/12/12 06:55:16;;;;;;;55.07;26.40;;;4.20;99.90;;;;;;5066607;28;20822;-63
2021/12/12 06:57:45;;;;;;;48.40;25.50;;;4.20;99.90;;;;;;5071057;28;20487;-63
2021/12/12 07:00:18;;;;;;;59.20;27.90;;;4.20;99.90;;;;;;5073349;28;20844;-62
2021/12/12 07:02:49;;;;;;;52.50;26.60;;;4.20;99.90;;;;;;5073726;28;20507;-62
2021/12/12 07:05:21;;;;;;;52.27;26.20;;;4.20;99.90;;;;;;5074030;28;20529;-62
2021/12/12 07:07:52;;;;;;;50.77;25.20;;;4.20;99.90;;;;;;5074351;28;20472;-62
2021/12/12 07:10:22;;;;;;;52.80;25.97;;;4.20;99.90;;;;;;5075947;28;20464;-62
2021/12/12 07:12:55;;;;;;;49.10;23.87;;;4.20;99.90;;;;;;5068206;28;20877;-62
2021/12/12 07:15:26;;;;;;;52.30;23.60;;;4.20;99.90;;;;;;5067596;28;20470;-62
2021/12/12 07:17:57;;;;;;;50.93;23.23;;;4.20;99.90;;;;;;5069704;28;20468;-63
2021/12/12 07:20:26;;;;;;;45.27;23.23;;;4.20;99.90;;;;;;5075612;28;20475;-62
2021/12/12 07:22:55;;;;;;;45.97;22.47;;;4.20;99.90;;;;;;5076007;28;20555;-63
2021/12/12 07:25:24;;;;;;;45.40;21.40;;;4.20;99.90;;;;;;5079142;28;20482;-62
2021/12/12 07:27:53;;;;;;;39.27;20.77;;;4.20;99.90;;;;;;5077304;28;20820;-62
2021/12/12 07:30:21;;;;;;;43.37;21.03;;;4.20;99.90;;;;;;5077860;28;20489;-62
2021/12/12 07:32:53;;;;;;;41.47;20.50;;;4.30;99.90;;;;;;5071385;28;20620;-62
2021/12/12 07:35:25;;;;;;;36.90;19.90;;;4.30;99.90;;;;;;5072004;28;20483;-62
2021/12/12 07:37:55;;;;;;;46.33;20.23;;;4.30;99.90;;;;;;5075071;28;20496;-62
2021/12/12 07:40:23;;;;;;;36.77;19.90;;;4.30;99.90;;;;;;5071812;28;20484;-62
2021/12/12 07:42:52;;;;;;;35.87;18.87;;;4.30;99.90;;;;;;5072323;28;20473;-62
2021/12/12 07:45:23;;;;;;;40.87;18.43;;;4.30;99.90;;;;;;5073700;28;20472;-62
2021/12/12 07:47:53;;;;;;;38.17;19.60;;;4.30;99.90;;;;;;5061599;28;20477;-62
2021/12/12 07:50:26;;;;;;;40.17;19.27;;;4.30;99.90;;;;;;5071974;28;20491;-62
2021/12/12 07:52:55;;;;;;;30.63;18.30;;;4.30;99.90;;;;;;5077423;28;20476;-62
2021/12/12 07:55:25;;;;;;;36.60;18.03;;;4.30;99.90;;;;;;5068113;28;20483;-62
2021/12/12 07:57:54;;;;;;;35.53;17.20;;;4.30;99.90;;;;;;5066062;28;20484;-62
2021/12/12 08:00:25;;;;;;;32.97;17.77;;;4.30;99.90;;;;;;5072965;28;20521;-62
2021/12/12 08:02:55;;;;;;;30.50;16.97;;;4.40;99.90;;;;;;5072188;28;20550;-62
2021/12/12 08:05:28;;;;;;;29.20;16.03;;;4.40;99.90;;;;;;5070236;28;20553;-63
2021/12/12 08:07:58;;;;;;;33.03;16.13;;;4.40;99.90;;;;;;5072043;28;20473;-62
2021/12/12 08:10:27;;;;;;;32.00;15.87;;;4.40;99.90;;;;;;5066007;28;20504;-63
2021/12/12 08:12:56;;;;;;;29.47;15.23;;;4.40;99.90;;;;;;5073644;28;20483;-62
2021/12/12 08:15:27;;;;;;;28.57;15.40;;;4.40;99.90;;;;;;5069152;28;20571;-62
2021/12/12 08:17:56;;;;;;;31.33;15.80;;;4.40;99.90;;;;;;5078451;28;20496;-62
2021/12/12 08:20:29;;;;;;;25.67;13.93;;;4.50;99.90;;;;;;5076499;28;20483;-62
2021/12/12 08:22:58;;;;;;;28.23;14.40;;;4.50;99.90;;;;;;5075703;28;21177;-62
2021/12/12 08:25:28;;;;;;;24.80;13.80;;;4.50;99.90;;;;;;5069394;28;20467;-62
2021/12/12 08:28:00;;;;;;;24.47;12.87;;;4.50;99.90;;;;;;5065876;28;20477;-63
2021/12/12 08:30:29;;;;;;;20.13;11.93;;;4.50;99.90;;;;;;5071220;28;21014;-62
2021/12/12 08:32:58;;;;;;;18.33;11.80;;;4.50;99.90;;;;;;5071134;28;20559;-62
2021/12/12 08:35:29;;;;;;;20.73;12.60;;;4.50;99.90;;;;;;5072499;28;20473;-62
2021/12/12 08:37:59;;;;;;;21.93;11.80;;;4.60;99.90;;;;;;5072799;28;20537;-62
2021/12/12 08:40:30;;;;;;;18.27;11.87;;;4.60;99.90;;;;;;5068831;28;20490;-63
2021/12/12 08:43:00;;;;;;;18.20;11.30;;;4.60;99.90;;;;;;5069021;28;20926;-62
2021/12/12 08:45:32;;;;;;;23.33;11.77;;;4.60;99.90;;;;;;5074217;28;20484;-62
2021/12/12 08:48:02;;;;;;;14.80;10.10;;;4.60;99.90;;;;;;5070684;28;20479;-62
2021/12/12 08:50:34;;;;;;;15.13;10.33;;;4.70;99.90;;;;;;5072210;28;20891;-62
2021/12/12 08:53:05;;;;;;;15.70;10.27;;;4.60;99.90;;;;;;5068972;28;20836;-62
2021/12/12 08:55:37;;;;;;;14.27;10.20;;;4.70;99.90;;;;;;5073072;28;20478;-62
2021/12/12 08:58:15;;;;;;;14.30;9.67;;;4.70;99.90;;;;;;5070080;28;20897;-62
2021/12/12 09:00:49;;;;;;;13.97;10.13;;;4.80;99.90;;;;;;5066956;28;20548;-62
2021/12/12 09:03:22;;;;;;;13.83;9.77;;;4.70;99.90;;;;;;5079046;28;20836;-62
2021/12/12 09:05:52;;;;;;;12.43;9.57;;;4.70;99.90;;;;;;5074186;28;20877;-62
2021/12/12 09:08:35;;;;;;;13.30;9.70;;;4.70;99.90;;;;;;5067217;28;20504;-62
2021/12/12 09:11:08;;;;;;;15.53;9.20;;;4.70;99.90;;;;;;5061262;28;20568;-62
2021/12/12 09:13:44;;;;;;;13.43;8.83;;;4.80;99.90;;;;;;5070827;28;20508;-62
2021/12/12 09:16:19;;;;;;;11.93;7.77;;;4.80;99.90;;;;;;5071138;28;20482;-63
2021/12/12 09:18:51;;;;;;;13.87;8.57;;;4.80;99.90;;;;;;5068721;28;20538;-62
2021/12/12 09:21:30;;;;;;;11.77;8.23;;;4.80;99.90;;;;;;5068668;28;20541;-62
2021/12/12 09:24:06;;;;;;;9.90;6.93;;;4.80;99.90;;;;;;5066277;28;20471;-62
2021/12/12 09:26:38;;;;;;;10.37;7.73;;;4.80;99.90;;;;;;5071754;28;20484;-62
2021/12/12 09:29:17;;;;;;;12.03;8.20;;;4.80;99.90;;;;;;5072259;28;20482;-62
2021/12/12 09:31:53;;;;;;;11.13;8.43;;;4.80;99.90;;;;;;5074279;28;20484;-63
2021/12/12 09:34:28;;;;;;;13.17;8.87;;;4.80;99.90;;;;;;5065639;28;20473;-62
2021/12/12 09:37:20;;;;;;;13.73;8.80;;;4.90;99.90;;;;;;5066376;28;20535;-62
2021/12/12 09:39:57;;;;;;;11.43;8.67;;;4.90;99.90;;;;;;5075512;28;20479;-62
2021/12/12 09:42:43;;;;;;;9.93;8.23;;;4.90;99.90;;;;;;5071419;28;20473;-62
2021/12/12 09:45:40;;;;;;;10.27;7.00;;;4.90;99.90;;;;;;5063207;28;20491;-63
2021/12/12 09:52:01;;;;;;;7.60;6.80;;;5.00;99.90;;;;;;5072292;28;20576;-63
2021/12/12 09:54:40;;;;;;;9.53;7.33;;;5.00;99.90;;;;;;5069992;28;20859;-63
2021/12/12 09:57:15;;;;;;;10.17;6.87;;;5.00;99.90;;;;;;5066180;28;20480;-63
2021/12/12 10:00:07;;;;;;;8.07;7.10;;;5.00;99.90;;;;;;5063316;28;20542;-62
2021/12/12 10:02:57;;;;;;;8.60;7.13;;;5.00;99.90;;;;;;5055003;28;20492;-62
2021/12/12 10:05:33;;;;;;;8.63;6.53;;;5.10;99.90;;;;;;5057923;28;20235;-62
2021/12/12 10:08:10;;;;;;;7.23;6.47;;;5.10;99.90;;;;;;5053269;28;20508;-63
2021/12/12 10:10:52;;;;;;;7.23;6.53;;;5.10;99.90;;;;;;5081484;28;20481;-63
2021/12/12 10:13:25;;;;;;;7.97;6.37;;;5.10;99.90;;;;;;5069633;28;20546;-62
2021/12/12 10:15:59;;;;;;;7.37;6.53;;;5.10;99.90;;;;;;5068089;28;20868;-62
2021/12/12 10:18:41;;;;;;;7.73;6.73;;;5.10;99.90;;;;;;5062919;28;20575;-62
2021/12/12 10:21:13;;;;;;;7.57;6.77;;;5.10;99.90;;;;;;5063216;28;20492;-62
2021/12/12 10:23:56;;;;;;;9.40;6.47;;;5.20;99.90;;;;;;5060049;28;20553;-62
2021/12/12 10:26:32;;;;;;;8.83;6.77;;;5.20;99.90;;;;;;5059019;28;20487;-62
2021/12/12 10:29:07;;;;;;;8.77;7.57;;;5.20;99.90;;;;;;5059288;28;20551;-62
2021/12/12 10:31:42;;;;;;;7.67;6.87;;;5.20;99.90;;;;;;5060536;28;20552;-62
2021/12/12 10:34:14;;;;;;;9.17;7.43;;;5.30;99.90;;;;;;5059562;28;20467;-62
2021/12/12 10:36:51;;;;;;;9.03;7.93;;;5.20;99.90;;;;;;5066975;28;20497;-62
2021/12/12 10:39:24;;;;;;;10.07;7.43;;;5.30;99.90;;;;;;5071713;28;20529;-63
2021/12/12 10:41:58;;;;;;;8.93;7.07;;;5.30;99.90;;;;;;5065950;28;20485;-62
2021/12/12 10:44:30;;;;;;;9.00;7.77;;;5.20;99.90;;;;;;5069615;28;20494;-62
2021/12/12 10:47:09;;;;;;;7.90;7.10;;;5.20;99.90;;;;;;5069160;28;20469;-62
2021/12/12 10:49:40;;;;;;;9.43;8.10;;;5.30;99.90;;;;;;5073854;28;20493;-62
2021/12/12 10:52:11;;;;;;;10.10;8.63;;;5.30;99.90;;;;;;5061421;28;20497;-62
2021/12/12 10:54:46;;;;;;;9.60;8.60;;;5.50;99.90;;;;;;5071293;28;20477;-62
2021/12/12 10:57:22;;;;;;;9.47;8.20;;;5.40;99.90;;;;;;5075885;28;20854;-62
2021/12/12 10:59:56;;;;;;;9.10;8.20;;;5.40;99.90;;;;;;5074937;28;20554;-62
2021/12/12 11:02:32;;;;;;;10.33;9.00;;;5.50;99.90;;;;;;5070980;28;20563;-62
2021/12/12 11:05:06;;;;;;;11.00;9.30;;;5.50;99.90;;;;;;5069645;28;20511;-62
2021/12/12 11:07:41;;;;;;;11.17;9.33;;;5.50;99.90;;;;;;5075567;28;20473;-62
2021/12/12 11:10:14;;;;;;;10.17;9.20;;;5.50;99.90;;;;;;5075789;28;22247;-62
2021/12/12 11:12:49;;;;;;;12.30;9.47;;;5.50;99.90;;;;;;5066819;28;21006;-62
2021/12/12 11:15:22;;;;;;;10.97;9.80;;;5.50;99.90;;;;;;5077456;28;20468;-62
2021/12/12 11:17:59;;;;;;;11.73;9.70;;;5.50;99.90;;;;;;5071287;28;20503;-62
2021/12/12 11:20:31;;;;;;;11.57;10.10;;;5.50;99.90;;;;;;5074866;28;20885;-62
2021/12/12 11:23:05;;;;;;;12.17;10.97;;;5.50;99.90;;;;;;5067150;28;20488;-62
2021/12/12 11:25:38;;;;;;;13.57;11.13;;;5.60;99.90;;;;;;5071014;28;21018;-62
2021/12/12 11:28:13;;;;;;;14.10;11.10;;;5.60;99.90;;;;;;5068895;28;20472;-62
2021/12/12 11:30:46;;;;;;;12.53;10.83;;;5.50;99.90;;;;;;5064563;28;20816;-62
2021/12/12 11:33:17;;;;;;;13.93;12.17;;;5.50;99.90;;;;;;5070113;28;20484;-62
2021/12/12 11:35:48;;;;;;;16.20;12.53;;;5.50;99.90;;;;;;5057867;28;20569;-62
2021/12/12 11:38:27;;;;;;;15.53;12.37;;;5.70;99.90;;;;;;5069458;28;20479;-62
2021/12/12 11:41:01;;;;;;;16.07;13.00;;;5.60;99.90;;;;;;5071784;28;20353;-61
2021/12/12 11:43:35;;;;;;;15.90;13.70;;;5.60;99.90;;;;;;5075155;28;20234;-62
2021/12/12 11:46:14;;;;;;;19.23;16.83;;;5.70;99.90;;;;;;5074083;28;20484;-62
2021/12/12 11:48:52;;;;;;;17.60;15.70;;;5.70;99.90;;;;;;5071220;28;20471;-63
2021/12/12 11:51:30;;;;;;;20.03;15.23;;;5.80;99.90;;;;;;5073015;28;20234;-63
2021/12/12 11:54:05;;;;;;;17.73;14.57;;;5.80;99.90;;;;;;5069499;28;20238;-63
2021/12/12 11:56:45;;;;;;;18.93;15.10;;;5.90;99.90;;;;;;5075188;28;21061;-62
2021/12/12 11:59:18;;;;;;;19.00;16.33;;;5.90;99.90;;;;;;5076230;28;20234;-62
2021/12/12 12:01:56;;;;;;;19.07;16.50;;;5.90;99.90;;;;;;5068637;28;20561;-62
2021/12/12 12:04:38;;;;;;;19.67;16.10;;;5.80;99.90;;;;;;5074567;28;20622;-62
2021/12/12 12:07:20;;;;;;;19.20;16.07;;;5.90;99.90;;;;;;5070515;28;20291;-62
2021/12/12 12:10:03;;;;;;;19.50;17.37;;;6.00;99.90;;;;;;5067920;28;20235;-62
2021/12/12 12:12:51;;;;;;;19.17;16.73;;;6.00;99.90;;;;;;5071241;28;20480;-62
2021/12/12 12:15:30;;;;;;;19.33;17.27;;;6.00;99.90;;;;;;5078333;28;20716;-62
2021/12/12 12:18:08;;;;;;;20.60;18.17;;;6.00;99.90;;;;;;5073419;28;20501;-62
2021/12/12 12:20:47;;;;;;;22.50;18.33;;;6.10;99.90;;;;;;5071607;28;20230;-62
2021/12/12 12:23:33;;;;;;;21.33;17.87;;;6.10;99.90;;;;;;5069702;28;20756;-62
2021/12/12 12:28:57;;;;;;;21.63;18.13;;;6.10;99.90;;;;;;5073986;28;21012;-62
2021/12/12 12:32:16;;;;;;;22.80;18.47;;;6.10;99.90;;;;;;5069904;28;20271;-63
2021/12/12 12:35:23;;;;;;;23.40;17.77;;;6.10;99.90;;;;;;5062988;28;21354;-62
2021/12/12 12:38:30;;;;;;;21.83;18.63;;;6.20;99.90;;;;;;5064371;28;20238;-62
2021/12/12 12:41:38;;;;;;;22.43;18.30;;;6.20;99.90;;;;;;5058277;28;20251;-62
2021/12/12 12:44:43;;;;;;;23.40;18.23;;;6.20;99.90;;;;;;5065195;28;20266;-63
2021/12/12 12:47:48;;;;;;;23.37;19.37;;;6.20;99.90;;;;;;5033530;28;20262;-62
2021/12/12 12:51:02;;;;;;;23.97;19.10;;;6.20;99.90;;;;;;5069050;28;20472;-62
2021/12/12 12:54:07;;;;;;;22.80;18.73;;;6.20;99.90;;;;;;4962278;28;20594;-62
2021/12/12 12:57:19;;;;;;;24.93;20.73;;;6.20;99.90;;;;;;5060327;28;20260;-62
2021/12/12 13:00:08;;;;;;;25.50;19.93;;;6.20;99.90;;;;;;5018396;28;20232;-63
2021/12/12 13:03:03;;;;;;;24.57;19.70;;;6.20;99.90;;;;;;5063065;28;20600;-63
2021/12/12 13:06:04;;;;;;;25.70;20.80;;;6.20;99.90;;;;;;5061829;28;20732;-63
2021/12/12 13:09:16;;;;;;;22.97;19.57;;;6.20;99.90;;;;;;5067894;28;20238;-62
2021/12/12 13:12:15;;;;;;;21.30;18.47;;;6.30;99.90;;;;;;5073597;28;20256;-62
2021/12/12 13:14:52;;;;;;;21.73;18.63;;;6.30;99.90;;;;;;5064811;28;20245;-62
2021/12/12 13:17:33;;;;;;;22.90;19.27;;;6.30;99.90;;;;;;5060443;28;20231;-63
2021/12/12 13:20:11;;;;;;;23.60;19.47;;;6.30;99.90;;;;;;5067077;28;20817;-62
2021/12/12 13:22:45;;;;;;;22.50;18.47;;;6.40;99.90;;;;;;5059158;28;20250;-62
2021/12/12 13:25:20;;;;;;;23.57;19.07;;;6.50;99.90;;;;;;5073132;28;20290;-62
2021/12/12 13:28:05;;;;;;;22.57;18.63;;;6.50;99.90;;;;;;5073942;28;20295;-62
2021/12/12 13:30:43;;;;;;;23.13;18.47;;;6.40;99.90;;;;;;5068735;28;20223;-62
2021/12/12 13:33:21;;;;;;;19.57;16.50;;;6.50;99.90;;;;;;5066134;28;20315;-63
2021/12/12 13:36:08;;;;;;;19.60;17.20;;;6.40;99.90;;;;;;5061721;28;20262;-62
2021/12/12 13:38:51;;;;;;;19.83;16.63;;;6.40;99.90;;;;;;5070507;28;20316;-63